Nearby METAR Reports

EGBB - Birmingham Airport
Distance: SSW 46mi, 74km
Updated: 23/02/2018 05:50
Mist, Partly cloudy
Mist, Partly cloudy
 Wind from N
Wind: N 3 mph , 6 km/h
Temperature: -3°C
Dew Point: -3°C
Humidity: 100%
Barometer: 1022 hPa
Summary: Mist
Clouds: Partly cloudy
Visibility: 3 miles , 5 km
2018/02/23 05:50 EGBB 230550Z 36003KT 5000 BR NSC M03/M03 Q1022
EGBE - Coventry Airport
Distance: S 49mi, 79km
Updated: 18/07/2017 14:50
NOT Current
Clear
Clear
 Wind from E
Wind: E 16 mph , 26 km/h
Temperature: 27°C
Heat Index: 27°C
Dew Point: 14°C
Humidity: 45%
Barometer: 1015 hPa
Summary: Clear
Visibility: greater than 7 miles , 10 km
2017/07/18 13:50 EGBE 181350Z 10014KT 060V120 CAVOK 27/14 Q1015
EGCC - Manchester International
Distance: WNW 45mi, 72km
Updated: 23/02/2018 05:50
Clear
Clear
 Wind from varies
Wind: varies 2 mph , 4 km/h
Temperature: 1°C
Dew Point: -2°C
Humidity: 81%
Barometer: 1023 hPa
Clouds: Clear
Visibility: 6 miles , 10 km
2018/02/23 05:50 EGCC 230550Z AUTO VRB02KT 9999 NCD 01/M02 Q1023 NOSIG
 
EGCN - Doncaster Sheffield
Distance: NNE 31mi, 50km
Updated: 23/02/2018 05:50
Mist, Partly cloudy
Mist, Partly cloudy
 Wind from varies
Wind: varies 1 mph , 2 km/h
Temperature: -4°C
Dew Point: -4°C
Humidity: 100%
Barometer: 1025 hPa
Summary: Mist
Clouds: Partly cloudy
Visibility: 3 miles , 5 km
2018/02/23 05:50 EGCN 230550Z VRB01KT 4900 BR NSC M04/M04 Q1025
EGNX - East Midlands
Distance: S 18mi, 28km
Updated: 23/02/2018 05:50
Partly cloudy
Partly cloudy
 Wind from NE
Wind: NE 5 mph , 7 km/h
Temperature: -2°C
Wind Chill: -6°C
Dew Point: -3°C
Humidity: 93%
Barometer: 1023 hPa
Clouds: Partly cloudy
Visibility: 4 miles , 7 km
2018/02/23 05:50 EGNX 230550Z 04004KT 7000 NSC M02/M03 Q1023
EGXC - Coningsby RAF
Distance: E 47mi, 75km
Updated: 23/02/2018 05:50
Mostly cloudy
Mostly cloudy
 Wind from ENE
Wind: ENE 6 mph , 9 km/h
Temperature: 1°C
Wind Chill: -2°C
Dew Point: -1°C
Humidity: 87%
Barometer: 1024 hPa
Clouds: Mostly cloudy
Visibility: 6 miles , 10 km
Cloud details: Partly cloudy 701 m
Mostly cloudy 1128 m
2018/02/23 05:50 EGXC 230550Z 06005KT 9999 SCT023 BKN037 01/M01 Q1024 WHT
 
EGXP - Scampton RAF
Distance: ENE 35mi, 56km
Updated: 23/02/2018 04:50
NOT Current
Clear
Clear
 Wind from NE
Wind: NE 6 mph , 9 km/h
Temperature: -3°C
Wind Chill: -7°C
Dew Point: -4°C
Humidity: 93%
Barometer: 1023 hPa
Clouds: Clear
Visibility: 3 miles , 5 km
2018/02/23 04:50 EGXP 230450Z AUTO 04005KT 5000 // NCD M03/M04 Q1023
EGXS - Swinderby RAF
Distance: ENE 26mi, 42km
Updated: 23/02/2018 04:50
NOT Current
Mostly cloudy
Mostly cloudy
 Wind from E
Wind: E 14 mph , 22 km/h
Temperature: 3°C
Wind Chill: -2°C
Dew Point: 0°C
Humidity: 81%
Barometer: 1024 hPa
Clouds: Mostly cloudy
Visibility: 6 miles , 10 km
Cloud details: Mostly cloudy 853 m
2018/02/23 04:50 EGXS 230450Z AUTO 09012KT 9999 // BKN028/// 03/00 Q1024
EGXT - Wittering RAF
Distance: SE 47mi, 75km
Updated: 23/02/2018 04:50
NOT Current
Mist, Clear
Mist, Clear
 Wind from E
Wind: E 6 mph , 9 km/h
Temperature: -2°C
Wind Chill: -6°C
Dew Point: -3°C
Humidity: 93%
Barometer: 1022 hPa
Summary: Mist
Clouds: Clear
Visibility: 4 miles , 6 km
2018/02/23 04:50 EGXT 230450Z AUTO 08005KT 6000 BR NCD M02/M03 Q1022
 
EGXW - Waddington RAF
Distance: ENE 33mi, 53km
Updated: 23/02/2018 05:50
Few Clouds
Few Clouds
 Wind from NNE
Wind: NNE 7 mph , 11 km/h
Temperature: -2°C
Wind Chill: -6°C
Dew Point: -2°C
Humidity: 100%
Barometer: 1024 hPa
Clouds: Few Clouds
Visibility: 6 miles , 10 km
Cloud details: Few Clouds 975 m
2018/02/23 05:50 EGXW 230550Z 03006KT 9999 FEW032 M02/M02 Q1024 BLU
EGYD - Cranwell RAF
Distance: E 33mi, 53km
Updated: 23/02/2018 04:50
NOT Current
Clear
Clear
 Wind from NNE
Wind: NNE 5 mph , 7 km/h
Temperature: -3°C
Wind Chill: -6°C
Dew Point: -3°C
Humidity: 100%
Barometer: 1023 hPa
Clouds: Clear
Visibility: 3 miles , 4 km
2018/02/23 04:50 EGYD 230450Z AUTO 03004KT 4100 // NCD M03/M03 Q1023
EGYE - Barkston Heath RAF
Distance: ESE 31mi, 50km
Updated: 22/02/2018 16:50
NOT Current
Few Clouds
Few Clouds
 Wind from SE
Wind: SE 9 mph , 15 km/h
Barometer: 1024 hPa
Clouds: Few Clouds
Visibility: 6 miles , 10 km
Cloud details: Few Clouds 762 m
2018/02/22 16:50 EGYE 221650Z 13008KT 9999 FEW025 ///// Q1024 BLU